Flight Track Log - Related Links

Times and Time Zones

All times are in EDT time to prevent confusion due to time zone crossing. See the SWA34 flight status page for this flight to view local times or setup timezone preferences in your user account.

Time Position Orientation Groundspeed Altitude Reporting Facility
EDT Latitude Longitude Course Direction KTS MPH feet Rate Location/Type
Wed 12:48:19 PM 33.6667 -84.3333 64° Northeast 200 230 3,800  Level Atlanta TRACON
Wed 12:49:25 PM 33.7000 -84.2833 51° Northeast 272 313 5,800 2,254 Climbing Atlanta TRACON
Wed 12:51:52 PM 33.8125 -84.4364 312° West 265 305 11,800 2,551 Climbing Atlanta Center
Wed 12:52:52 PM 33.8119 -84.5639 270° West 340 391 14,600 2,600 Climbing Atlanta Center
Wed 12:53:00 PM 33.7507 -84.6532 234° Southwest  Level FlightAware Approximate
Wed 12:53:52 PM 33.7550 -84.6708 237° Southwest 343 395 17,000  Level Atlanta Center
Wed 12:54:52 PM 33.6897 -84.7678 231° Southwest 364 419 18,900 2,000 Climbing Atlanta Center
Wed 12:55:52 PM 33.6306 -84.8894 240° Southwest 407 468 21,000 2,000 Climbing Atlanta Center
Wed 12:56:52 PM 33.5900 -85.0039 247° West 415 478 22,900 1,500 Climbing Atlanta Center
Wed 12:57:52 PM 33.5431 -85.1281 246° West 415 478 24,000 1,150 Climbing Atlanta Center
Wed 12:58:52 PM 33.5044 -85.2594 251° West 415 478 25,200 1,350 Climbing Atlanta Center
Wed 12:59:52 PM 33.4758 -85.3986 256° West 425 489 26,700 1,800 Climbing Atlanta Center
Wed 01:00:52 PM 33.4386 -85.5350 252° West 430 495 28,800 1,800 Climbing Atlanta Center
Wed 01:01:52 PM 33.4017 -85.6636 251° West 424 488 30,300 1,500 Climbing Atlanta Center
Wed 01:02:52 PM 33.3622 -85.8022 251° West 417 480 31,800 1,300 Climbing Atlanta Center
Wed 01:03:52 PM 33.3247 -85.9283 250° West 406 467 32,900 1,100 Climbing Atlanta Center
Wed 01:04:52 PM 33.2894 -86.0542 251° West 401 461 34,000 -450 Climbing Atlanta Center
Wed 01:05:52 PM 33.2558 -86.1803 252° West 406 467 32,000 -1,000 Descending Atlanta Center
Wed 01:06:52 PM 33.2203 -86.3083 252° West 401 461 32,000  Level Atlanta Center
Wed 01:07:52 PM 33.1822 -86.4364 250° West 401 461 32,000  Level Atlanta Center
Wed 01:08:52 PM 33.1442 -86.5694 251° West 409 471 32,000  Level Atlanta Center
Wed 01:09:52 PM 33.1103 -86.6900 251° West 423 487 32,000  Level Atlanta Center
Wed 01:10:52 PM 33.0697 -86.8250 250° West 423 487 32,000  Level Atlanta Center
Wed 01:11:52 PM 33.0333 -86.9553 252° West 423 487 32,000  Level Atlanta Center
Wed 01:12:52 PM 32.9925 -87.0900 250° West 423 487 32,000  Level Atlanta Center
Wed 01:13:52 PM 32.9536 -87.2247 251° West 428 493 32,000  Level Atlanta Center
Wed 01:14:52 PM 32.9167 -87.3572 252° West 422 486 32,000  Level Atlanta Center
Wed 01:15:52 PM 32.8756 -87.4939 250° West 433 498 32,000  Level Atlanta Center
Wed 01:17:21 PM 32.8064 -87.7103 249° West 433 498 32,000  Level Memphis Center
Wed 01:18:21 PM 32.7636 -87.8497 250° West 433 498 32,000  Level Memphis Center
Wed 01:20:21 PM 32.6831 -88.1236 251° West 451 519 32,000 33 Level Memphis Center
Wed 01:21:21 PM 32.6417 -88.2628 251° West 451 519 32,100 850 Climbing Memphis Center
Wed 01:22:21 PM 32.6022 -88.3944 250° West 446 513 33,700 1,140 Climbing Memphis Center
Wed 01:23:22 PM 32.5625 -88.5283 251° West 439 505 34,400 1,140 Climbing Memphis Center
Wed 01:24:22 PM 32.5225 -88.6500 249° West 427 491 36,000 800 Climbing Memphis Center
Wed 01:25:22 PM 32.4844 -88.7786 251° West 413 475 36,000  Level Memphis Center
Wed 01:26:21 PM 32.4464 -88.9025 250° West 413 475 36,000  Level Memphis Center
Wed 01:27:22 PM 32.4058 -89.0286 249° West 413 475 36,000  Level Memphis Center
Wed 01:28:22 PM 32.3656 -89.1547 249° West 413 475 36,000  Level Memphis Center
Wed 01:29:21 PM 32.3228 -89.2831 249° West 413 475 36,000  Level Memphis Center
Wed 01:30:22 PM 32.2842 -89.4114 250° West 413 475 36,000  Level Memphis Center
Wed 01:31:21 PM 32.2411 -89.5394 248° West 413 475 36,000  Level Memphis Center
Wed 01:32:21 PM 32.2025 -89.6700 251° West 413 475 36,000  Level Memphis Center
Wed 01:33:22 PM 32.1592 -89.7978 248° West 418 481 36,000  Level Memphis Center
Wed 01:34:21 PM 32.1200 -89.9256 250° West 418 481 36,000  Level Memphis Center
Wed 01:35:21 PM 32.0767 -90.0583 249° West 423 487 36,000  Level Memphis Center
Wed 01:36:22 PM 32.0350 -90.1883 249° West 428 493 36,000 -39 Level Memphis Center
Wed 01:37:55 PM 31.9850 -90.3953 254° West 429 494 35,900  Descending Houston Center
Wed 01:38:57 PM 31.9642 -90.5331 260° West 430 495 36,000 48 Climbing Houston Center
Wed 01:39:59 PM 31.9425 -90.6694 259° West 427 491 36,000  Level Houston Center
Wed 01:41:01 PM 31.9222 -90.7983 260° West 429 494 36,000  Level Houston Center
Wed 01:42:03 PM 31.8950 -90.9617 259° West 426 490 36,000  Level Houston Center
Wed 01:43:05 PM 31.8667 -91.0947 256° West 422 486 36,000  Level Houston Center
Wed 01:44:07 PM 31.8231 -91.2225 248° West 420 483 36,000  Level Houston Center
Wed 01:45:09 PM 31.7744 -91.3478 245° Southwest 421 484 36,000  Level Houston Center
Wed 01:46:11 PM 31.7264 -91.4733 246° West 422 486 36,000  Level Houston Center
Wed 01:47:13 PM 31.6786 -91.5961 245° Southwest 417 480 36,000  Level Houston Center
Wed 01:48:15 PM 31.6208 -91.7433 245° Southwest 414 476 36,000  Level Houston Center
Wed 01:49:17 PM 31.5728 -91.8669 245° Southwest 416 479 36,000  Level Houston Center
Wed 01:50:19 PM 31.5247 -91.9903 245° Southwest 416 479 36,000  Level Houston Center
Wed 01:51:21 PM 31.4775 -92.1044 244° Southwest 412 474 36,000  Level Houston Center
Wed 01:52:23 PM 31.4300 -92.2272 246° West 415 478 36,000  Level Houston Center
Wed 01:53:25 PM 31.3725 -92.3728 245° Southwest 413 475 36,000  Level Houston Center
Wed 01:54:27 PM 31.3222 -92.4942 244° Southwest 417 480 36,000  Level Houston Center
Wed 01:55:29 PM 31.2750 -92.6150 245° Southwest 412 474 36,000  Level Houston Center
Wed 01:56:31 PM 31.2272 -92.7400 246° West 419 482 36,000  Level Houston Center
Wed 01:57:33 PM 31.1786 -92.8603 245° Southwest 414 476 36,000  Level Houston Center
Wed 01:58:35 PM 31.1203 -93.0044 245° Southwest 412 474 36,000  Level Houston Center
Wed 01:59:37 PM 31.0711 -93.1250 245° Southwest 413 475 36,000  Level Houston Center
Wed 02:00:39 PM 31.0236 -93.2447 245° Southwest 411 473 36,000  Level Houston Center
Wed 02:01:41 PM 30.9728 -93.3644 244° Southwest 407 468 36,000  Level Houston Center
Wed 02:02:43 PM 30.9269 -93.4806 245° Southwest 406 467 36,000  Level Houston Center
Wed 02:03:45 PM 30.8775 -93.6006 244° Southwest 414 476 36,000 -484 Level Houston Center
Wed 02:04:47 PM 30.8181 -93.7453 244° Southwest 416 479 35,000 -1,056 Descending Houston Center
Wed 02:05:50 PM 30.7686 -93.8653 244° Southwest 417 480 33,800 -2,160 Descending Houston Center
Wed 02:06:52 PM 30.7172 -93.9889 244° Southwest 423 487 30,500 -3,048 Descending Houston Center
Wed 02:07:54 PM 30.6631 -94.1192 244° Southwest 442 509 27,500 -2,336 Descending Houston Center
Wed 02:08:45 PM 30.6075 -94.2522 244° Southwest 448 516 26,100 -2,160 Descending Houston Center
Wed 02:09:34 PM 30.5633 -94.3578 244° Southwest 448 516 23,900 -2,712 Descending Houston Center
Wed 02:09:58 PM 30.5425 -94.4042 242° Southwest 450 518 22,800 -3,049 Descending Houston Center
Wed 02:10:35 PM 30.5106 -94.4836 245° Southwest 443 510 20,800 -2,710 Descending Houston Center
Wed 02:11:00 PM 30.4944 -94.5183 242° Southwest 436 502 20,000 -3,581 Descending Houston Center
Wed 02:11:37 PM 30.4383 -94.6044 233° Southwest 430 495 17,100 -3,871 Descending Houston Center
Wed 02:12:02 PM 30.4131 -94.6478 236° Southwest 430 495 16,000 -2,656 Descending Houston Center
Wed 02:12:38 PM 30.3689 -94.7128 232° Southwest 402 463 14,400 -2,419 Descending Houston Center
Wed 02:13:04 PM 30.3472 -94.7500 236° Southwest 400 460 13,500 -1,500 Descending Houston Center
Wed 02:13:34 PM 30.3119 -94.8000 231° Southwest 356 410 13,000 -381 Descending Houston Center
Wed 02:14:07 PM 30.2875 -94.8400 235° Southwest 358 412 13,100 97 Climbing Houston Center
Wed 02:14:36 PM 30.2533 -94.8897 232° Southwest 349 402 13,100 -97 Level Houston Center
Wed 02:15:09 PM 30.2292 -94.9303 235° Southwest 350 403 13,000 -90 Descending Houston Center
Wed 02:15:43 PM 30.1875 -94.9922 232° Southwest 346 398 13,000  Level Houston Center
Wed 02:16:11 PM 30.1722 -95.0169 234° Southwest 341 392 13,000 -643 Level Houston Center
Wed 02:16:39 PM 30.1317 -95.0694 228° Southwest 342 394 12,400 -1,161 Descending Houston Center
Wed 02:17:13 PM 30.0814 -95.0944 203° Southwest 356 410 11,800 -984 Descending Houston Center
Wed 02:17:40 PM 30.0431 -95.1117 201° Southwest 352 405 11,400 -968 Descending Houston Center
Wed 02:18:15 PM 29.9914 -95.1333 200° South 349 402 10,800 -984 Descending Houston Center
Wed 02:18:41 PM 29.9419 -95.1531 199° South 356 410 10,400 -545 Descending Houston Center
Wed 02:19:43 PM 29.8511 -95.1931 201° Southwest 340 391 10,000 -551 Descending Houston Center
Wed 02:20:19 PM 29.8131 -95.2092 200° South 339 390 9,500 -1,180 Descending Houston Center
Wed 02:20:44 PM 29.7703 -95.2269 200° South 306 352 8,800 -1,238 Descending Houston Center
Wed 02:21:22 PM 29.7344 -95.2339 190° South 302 348 8,200 -1,258 Descending Houston Center
Wed 02:21:46 PM 29.6892 -95.2344 181° South 290 334 7,500 -1,065 Descending Houston Center
Wed 02:22:24 PM 29.6397 -95.2372 183° South 288 331 7,100 -590 Descending Houston Center
Wed 02:22:47 PM 29.6078 -95.2394 183° South 247 284 6,900 -677 Descending Houston Center
Wed 02:23:26 PM 29.5728 -95.2428 185° South 254 292 6,400 -885 Descending Houston Center
Wed 02:23:48 PM 29.5444 -95.2592 207° Southwest 233 268 6,000 -387 Descending Houston Center
Wed 02:24:28 PM 29.5200 -95.2844 222° Southwest 235 270 6,000 -393 Level Houston Center
Wed 02:24:49 PM 29.4967 -95.3106 224° Southwest 234 269 5,600 -677 Descending Houston Center
Wed 02:25:30 PM 29.4739 -95.3350 223° Southwest 234 269 5,300 -590 Descending Houston Center
Wed 02:25:50 PM 29.4569 -95.3586 231° Southwest 203 234 5,000 -290 Descending Houston Center
Wed 02:26:32 PM 29.4247 -95.3897 220° Southwest 219 252 5,000 -484 Level Houston Center
Wed 02:26:52 PM 29.4133 -95.4094 236° Southwest 210 242 4,500 -1,065 Descending Houston Center
Wed 02:27:34 PM 29.4286 -95.4478 295° West 218 251 3,900 -1,038 Descending Houston Center
Wed 02:28:36 PM 29.4800 -95.4506 357° North 208 239 2,700 -912 Descending Houston Center
Wed 02:29:39 PM 29.5256 -95.4125 36° Northeast 205 236 2,000 -288 Descending Houston Center
Wed 02:30:41 PM 29.5614 -95.3714 45° Northeast 194 223 2,100 -387 Climbing Houston Center
Wed 02:31:43 PM 29.5972 -95.3317 44° Northeast 185 213 1,200 -871 Descending Houston Center
Wed 02:32:45 PM 29.6333 -95.2928 43° Northeast 160 184 300 -484 Descending Houston Center
Wed 02:33:47 PM 29.6631 -95.2628 41° Northeast 156 180 200 -97 Descending Houston Center

Login

Don't have an account? Register now (free) for customized features, flight alerts, and more!